Time;durP1;ratioP1;P1;durP2;ratioP2;P2;SDS_P1;SDS_P2;PMS_P1;PMS_P2;Temp;Humidity;BMP_temperature;BMP_pressure;BME280_temperature;BME280_humidity;BME280_pressure;Samples;Min_cycle;Max_cycle;Signal;HPM_P1;HPM_P2
2022/09/07 00:00:05;;;;;;;5.75;2.00;;;13.20;75.80;;;;;;10360166;28;20115;-84
2022/09/07 00:05:06;;;;;;;3.53;1.80;;;13.10;75.40;;;;;;10368744;28;20068;-83
2022/09/07 00:10:07;;;;;;;4.50;2.10;;;13.00;75.90;;;;;;10361626;28;20109;-83
2022/09/07 00:15:10;;;;;;;7.32;2.58;;;12.90;76.10;;;;;;10363403;28;20030;-83
2022/09/07 00:20:11;;;;;;;5.60;2.35;;;12.80;77.20;;;;;;10361751;28;20057;-84
2022/09/07 00:25:12;;;;;;;6.35;2.58;;;12.70;76.80;;;;;;10355774;28;20054;-85
2022/09/07 00:30:12;;;;;;;4.25;2.40;;;12.60;76.70;;;;;;10361936;28;20038;-84
2022/09/07 00:35:13;;;;;;;5.10;2.08;;;12.40;77.50;;;;;;10358825;28;20060;-83
2022/09/07 00:40:14;;;;;;;3.50;2.10;;;12.20;78.20;;;;;;10360683;28;20120;-84
2022/09/07 00:45:17;;;;;;;2.53;1.67;;;12.10;80.00;;;;;;10357830;28;20045;-83
2022/09/07 00:50:18;;;;;;;2.30;1.60;;;11.80;80.20;;;;;;10355601;28;20080;-85
2022/09/07 00:55:19;;;;;;;4.90;2.42;;;11.70;80.30;;;;;;10361692;28;20444;-86
2022/09/07 01:00:21;;;;;;;4.15;2.38;;;11.60;80.70;;;;;;10356102;28;20036;-84
2022/09/07 01:05:50;;;;;;;3.65;1.85;;;11.60;80.30;;;;;;10360727;28;20030;-83
2022/09/07 01:10:50;;;;;;;7.65;2.10;;;11.60;80.70;;;;;;10359145;28;20046;-83
2022/09/07 01:15:58;;;;;;;6.68;2.83;;;11.60;80.70;;;;;;10367431;28;20038;-86
2022/09/07 01:21:24;;;;;;;3.85;2.17;;;11.60;80.80;;;;;;10368087;28;20026;-84
2022/09/07 01:26:25;;;;;;;4.10;1.83;;;11.60;80.80;;;;;;10366600;28;20108;-83
2022/09/07 01:31:47;;;;;;;3.85;2.08;;;11.60;81.00;;;;;;10361993;28;20063;-82
2022/09/07 01:37:12;;;;;;;8.23;2.53;;;11.60;80.90;;;;;;10365799;28;20092;-83
2022/09/07 01:42:17;;;;;;;4.55;2.20;;;11.60;81.40;;;;;;10369415;28;20084;-83
2022/09/07 01:47:23;;;;;;;3.92;2.15;;;11.50;81.30;;;;;;10359010;28;20029;-82
2022/09/07 01:52:41;;;;;;;5.30;2.25;;;11.40;81.40;;;;;;10363799;28;20034;-85
2022/09/07 01:57:47;;;;;;;5.07;2.50;;;11.40;82.20;;;;;;10367875;28;20072;-83
2022/09/07 02:02:51;;;;;;;5.75;2.30;;;11.20;82.20;;;;;;10364870;28;20025;-84
2022/09/07 02:08:03;;;;;;;4.47;2.42;;;11.10;82.50;;;;;;10365926;28;20476;-83
2022/09/07 02:13:18;;;;;;;3.83;2.17;;;11.10;83.00;;;;;;10362271;28;20096;-83
2022/09/07 02:18:23;;;;;;;5.03;2.70;;;11.00;83.30;;;;;;10364656;28;20037;-83
2022/09/07 02:23:35;;;;;;;3.47;2.50;;;10.90;83.60;;;;;;10363679;28;20112;-84
2022/09/07 02:28:37;;;;;;;6.03;3.20;;;10.80;84.10;;;;;;10364406;28;20609;-82
2022/09/07 02:33:38;;;;;;;7.00;2.40;;;10.70;84.20;;;;;;10364871;28;20033;-84
2022/09/07 02:38:39;;;;;;;5.20;2.30;;;10.60;84.80;;;;;;10365183;28;20041;-85
2022/09/07 02:43:39;;;;;;;4.97;2.60;;;10.50;85.00;;;;;;10366254;28;20040;-83
2022/09/07 02:48:58;;;;;;;6.47;2.73;;;10.40;85.50;;;;;;10361859;28;20808;-83
2022/09/07 02:54:30;;;;;;;4.90;3.00;;;10.40;85.80;;;;;;10365038;28;20038;-82
2022/09/07 02:59:59;;;;;;;5.17;2.80;;;10.30;86.80;;;;;;10364818;28;20033;-84
2022/09/07 03:04:59;;;;;;;6.07;3.60;;;10.20;87.00;;;;;;10361966;28;20046;-85
2022/09/07 03:10:03;;;;;;;6.23;2.80;;;10.10;87.20;;;;;;10358053;28;20030;-84
2022/09/07 03:15:04;;;;;;;9.90;3.57;;;10.00;87.40;;;;;;10360806;28;20038;-87
2022/09/07 03:20:05;;;;;;;8.83;2.77;;;10.00;87.60;;;;;;10356820;28;20061;-85
2022/09/07 03:25:06;;;;;;;5.47;3.17;;;10.00;88.10;;;;;;10354414;28;20089;-85
2022/09/07 03:30:09;;;;;;;6.50;3.13;;;9.90;88.60;;;;;;10361131;28;20022;-87
2022/09/07 03:35:28;;;;;;;7.77;3.13;;;9.80;89.00;;;;;;10362167;28;20092;-85
2022/09/07 03:40:28;;;;;;;6.37;2.90;;;9.80;89.40;;;;;;10363389;28;20030;-86
2022/09/07 03:45:29;;;;;;;4.50;2.80;;;9.80;89.10;;;;;;10361481;28;20470;-85
2022/09/07 03:50:29;;;;;;;5.10;2.90;;;9.70;89.20;;;;;;10349250;28;20397;-85
2022/09/07 03:55:30;;;;;;;6.27;3.30;;;9.70;89.50;;;;;;10354648;28;20021;-86
2022/09/07 04:00:31;;;;;;;7.37;3.27;;;9.70;89.40;;;;;;10360159;28;20121;-87
2022/09/07 04:05:31;;;;;;;10.27;3.50;;;9.70;90.30;;;;;;10362680;28;20215;-87
2022/09/07 04:10:37;;;;;;;8.57;3.90;;;9.50;90.30;;;;;;10361500;28;20163;-87
2022/09/07 04:15:37;;;;;;;8.75;3.50;;;9.50;90.60;;;;;;10354677;28;20033;-85
2022/09/07 04:20:38;;;;;;;6.77;3.83;;;9.50;90.80;;;;;;10352563;28;20033;-86
2022/09/07 04:25:49;;;;;;;8.87;3.70;;;9.40;91.00;;;;;;10354991;28;20054;-87
2022/09/07 04:30:50;;;;;;;6.37;3.47;;;9.40;91.20;;;;;;10351804;28;20061;-86
2022/09/07 04:35:50;;;;;;;10.27;3.87;;;9.40;91.60;;;;;;10360276;28;20117;-86
2022/09/07 04:41:02;;;;;;;5.67;3.23;;;9.30;91.90;;;;;;10358639;28;20432;-87
2022/09/07 04:46:04;;;;;;;8.30;3.30;;;9.30;92.30;;;;;;10362922;28;20038;-85
2022/09/07 04:51:07;;;;;;;9.47;3.47;;;9.40;92.70;;;;;;10370142;28;20534;-87
2022/09/07 04:56:07;;;;;;;7.13;3.90;;;9.40;93.30;;;;;;10371019;28;20465;-86
2022/09/07 05:01:08;;;;;;;11.73;4.00;;;9.30;93.90;;;;;;10369520;28;20030;-85
2022/09/07 05:06:10;;;;;;;9.67;4.97;;;9.40;94.50;;;;;;10370453;28;21040;-86
2022/09/07 05:11:11;;;;;;;7.50;3.30;;;9.50;94.40;;;;;;10370645;28;20489;-85
2022/09/07 05:16:14;;;;;;;6.30;3.93;;;9.60;94.40;;;;;;10368554;28;20028;-84
2022/09/07 05:21:24;;;;;;;6.43;3.77;;;9.80;94.00;;;;;;10368962;28;20073;-86
2022/09/07 05:26:27;;;;;;;8.33;3.93;;;10.00;94.00;;;;;;10366503;28;20042;-85
2022/09/07 05:31:28;;;;;;;9.47;4.00;;;10.10;93.90;;;;;;10368089;28;20029;-85
2022/09/07 05:36:29;;;;;;;13.10;5.10;;;10.20;93.70;;;;;;10368244;28;20034;-85
2022/09/07 05:41:29;;;;;;;11.30;4.03;;;10.40;93.70;;;;;;10369276;28;20060;-85
2022/09/07 05:46:30;;;;;;;8.17;4.50;;;10.60;93.60;;;;;;10367908;28;20038;-86
2022/09/07 05:51:30;;;;;;;8.30;4.23;;;10.70;93.30;;;;;;10368684;28;20064;-86
2022/09/07 05:56:35;;;;;;;9.43;4.40;;;10.90;93.70;;;;;;10367487;28;20037;-85
2022/09/07 06:01:35;;;;;;;8.20;4.50;;;11.10;93.90;;;;;;10361353;28;20144;-85
2022/09/07 06:06:39;;;;;;;14.23;5.15;;;11.30;93.80;;;;;;10368064;28;20068;-85
2022/09/07 06:11:40;;;;;;;17.13;4.95;;;11.50;93.50;;;;;;10366801;28;20089;-85
2022/09/07 06:16:40;;;;;;;19.70;6.07;;;11.60;92.90;;;;;;10367605;28;20168;-86
2022/09/07 06:21:41;;;;;;;12.25;5.90;;;11.90;92.80;;;;;;10366191;28;20053;-85
2022/09/07 06:26:41;;;;;;;13.07;5.72;;;12.10;92.90;;;;;;10366636;28;20145;-86
2022/09/07 06:31:42;;;;;;;15.20;6.70;;;12.30;93.20;;;;;;10370802;28;20042;-85
2022/09/07 06:36:42;;;;;;;16.17;7.07;;;12.50;92.50;;;;;;10378613;28;20034;-87
2022/09/07 06:41:43;;;;;;;18.75;6.68;;;12.80;92.60;;;;;;10371927;28;20102;-85
2022/09/07 06:47:04;;;;;;;19.17;7.25;;;13.00;92.50;;;;;;10367935;28;20042;-85
2022/09/07 06:52:04;;;;;;;20.05;7.22;;;13.30;90.90;;;;;;10363799;28;20030;-86
2022/09/07 06:57:07;;;;;;;24.42;7.78;;;13.50;91.10;;;;;;10364624;28;20034;-86
2022/09/07 07:02:10;;;;;;;23.73;9.15;;;13.80;91.30;;;;;;10367299;28;20018;-85
2022/09/07 07:07:12;;;;;;;27.67;9.05;;;14.00;90.50;;;;;;10365525;28;20120;-85
2022/09/07 07:12:13;;;;;;;24.70;8.45;;;14.30;90.60;;;;;;10363377;28;20082;-85
2022/09/07 07:17:13;;;;;;;25.88;8.60;;;14.60;90.80;;;;;;10367469;28;20105;-86
2022/09/07 07:22:14;;;;;;;21.23;8.48;;;14.90;90.70;;;;;;10365602;28;20109;-86
2022/09/07 07:27:16;;;;;;;21.15;7.50;;;15.20;90.10;;;;;;10364904;28;20584;-86
2022/09/07 07:32:16;;;;;;;23.25;8.55;;;15.40;87.50;;;;;;10373314;28;20033;-86
2022/09/07 07:37:17;;;;;;;23.17;7.63;;;15.70;86.40;;;;;;10368320;28;20099;-86
2022/09/07 07:42:20;;;;;;;26.27;8.02;;;15.90;86.00;;;;;;10367658;28;20033;-86
2022/09/07 07:47:21;;;;;;;24.17;8.23;;;16.40;88.20;;;;;;10364278;28;20068;-86
2022/09/07 07:52:23;;;;;;;22.45;8.45;;;16.70;86.40;;;;;;10362647;28;20365;-86
2022/09/07 07:57:53;;;;;;;27.63;8.38;;;16.90;85.80;;;;;;10360711;28;20112;-85
2022/09/07 08:09:00;;;;;;;18.13;7.10;;;17.80;84.90;;;;;;10366833;28;20046;-85
2022/09/07 08:14:07;;;;;;;19.13;7.43;;;18.10;83.70;;;;;;10361827;28;20034;-84
2022/09/07 08:19:08;;;;;;;26.23;7.32;;;18.40;83.00;;;;;;10365013;28;20046;-86
2022/09/07 08:24:18;;;;;;;16.55;6.50;;;18.70;80.00;;;;;;10359299;28;20129;-86
2022/09/07 08:29:18;;;;;;;12.98;5.18;;;18.90;80.50;;;;;;10361600;28;20057;-84
2022/09/07 08:34:20;;;;;;;10.27;4.68;;;19.30;80.70;;;;;;10361234;28;20021;-86
2022/09/07 08:39:21;;;;;;;8.07;4.30;;;19.70;79.40;;;;;;10353408;28;20037;-85
2022/09/07 08:44:32;;;;;;;10.20;4.53;;;20.10;79.60;;;;;;10353878;28;20481;-86
2022/09/07 08:49:47;;;;;;;15.55;5.28;;;20.30;77.40;;;;;;10358536;28;20030;-85
2022/09/07 08:55:05;;;;;;;13.00;4.23;;;20.60;75.40;;;;;;10360720;28;20148;-85
2022/09/07 09:00:19;;;;;;;8.50;4.10;;;20.90;75.50;;;;;;10360695;28;20534;-85
2022/09/07 09:05:33;;;;;;;10.40;4.28;;;21.20;74.10;;;;;;10362262;28;20044;-86
2022/09/07 09:11:05;;;;;;;10.85;3.88;;;21.50;73.60;;;;;;10365171;28;20026;-85
2022/09/07 09:16:21;;;;;;;11.00;4.47;;;21.80;71.60;;;;;;10356668;28;20088;-86
2022/09/07 09:21:21;;;;;;;8.38;4.43;;;22.00;70.40;;;;;;10361414;28;20030;-86
2022/09/07 09:26:43;;;;;;;13.52;3.97;;;22.20;72.10;;;;;;10356371;28;20061;-87
2022/09/07 09:31:44;;;;;;;10.10;4.53;;;22.40;69.30;;;;;;10400353;28;20427;-86
2022/09/07 09:36:53;;;;;;;8.10;4.18;;;22.50;70.40;;;;;;10402961;28;20054;-86
2022/09/07 09:42:08;;;;;;;10.15;4.63;;;22.80;69.00;;;;;;10404537;28;20044;-87
2022/09/07 09:47:38;;;;;;;7.47;4.22;;;22.90;69.70;;;;;;10387873;28;20406;-87
2022/09/07 09:53:00;;;;;;;5.75;3.65;;;23.20;66.70;;;;;;10363422;28;20128;-87
2022/09/07 09:58:44;;;;;;;7.30;3.97;;;23.20;67.60;;;;;;10395610;28;20531;-86
2022/09/07 10:03:45;;;;;;;6.60;4.18;;;23.30;68.20;;;;;;10366779;28;20096;-87
2022/09/07 10:09:20;;;;;;;8.13;3.42;;;23.50;69.40;;;;;;10361177;28;20057;-86
2022/09/07 10:14:27;;;;;;;9.00;4.10;;;24.00;69.10;;;;;;10338110;28;20045;-86
2022/09/07 10:19:37;;;;;;;7.97;3.97;;;24.00;65.60;;;;;;10362020;28;20030;-87
2022/09/07 10:24:38;;;;;;;6.60;3.53;;;24.30;65.50;;;;;;10365737;28;20041;-86
2022/09/07 10:29:40;;;;;;;6.25;3.47;;;24.20;65.10;;;;;;10364228;28;20030;-87
2022/09/07 10:35:12;;;;;;;9.27;3.60;;;24.00;67.20;;;;;;10358471;28;20038;-86
2022/09/07 10:40:28;;;;;;;8.68;4.43;;;24.40;64.40;;;;;;10366773;28;20445;-87
2022/09/07 10:45:59;;;;;;;11.27;4.55;;;24.50;65.90;;;;;;10365223;28;20053;-88
2022/09/07 10:51:09;;;;;;;10.00;4.68;;;24.70;66.10;;;;;;10364019;28;20056;-86
2022/09/07 10:56:34;;;;;;;11.77;4.95;;;24.70;64.20;;;;;;10370429;28;20033;-86
2022/09/07 11:01:56;;;;;;;7.93;4.03;;;24.90;62.00;;;;;;10378310;28;20075;-86
2022/09/07 11:07:32;;;;;;;11.38;4.20;;;25.00;63.80;;;;;;10366912;28;20277;-85
2022/09/07 11:12:36;;;;;;;8.55;3.85;;;25.00;64.10;;;;;;10360558;28;20030;-87
2022/09/07 11:18:26;;;;;;;25.58;12.13;;;25.20;66.80;;;;;;10362112;28;20030;-86
2022/09/07 11:23:42;;;;;;;8.40;3.33;;;25.30;61.60;;;;;;10358733;28;20063;-86
2022/09/07 11:28:51;;;;;;;80.25;36.80;;;25.30;63.60;;;;;;10371646;28;20058;-86
2022/09/07 11:34:00;;;;;;;19.20;8.20;;;25.20;61.70;;;;;;10370537;28;20101;-87
2022/09/07 11:39:16;;;;;;;9.98;4.13;;;25.20;65.70;;;;;;10362455;28;20045;-86
2022/09/07 11:44:39;;;;;;;33.05;15.63;;;25.30;61.20;;;;;;10365850;28;20559;-86
2022/09/07 11:49:39;;;;;;;11.45;6.13;;;25.00;60.50;;;;;;10359763;28;20571;-85
2022/09/07 11:54:50;;;;;;;11.48;4.50;;;24.70;63.90;;;;;;10364243;28;20070;-87
2022/09/07 12:00:06;;;;;;;6.38;3.65;;;25.00;66.20;;;;;;10364023;28;20046;-86
2022/09/07 12:05:22;;;;;;;6.05;3.58;;;25.30;64.50;;;;;;10356376;28;20026;-88
2022/09/07 12:10:50;;;;;;;5.28;3.20;;;25.50;61.20;;;;;;10360891;28;20037;-87
2022/09/07 12:16:04;;;;;;;9.05;3.65;;;25.40;62.00;;;;;;10358629;28;20053;-87
2022/09/07 12:21:43;;;;;;;6.60;3.40;;;25.60;61.00;;;;;;10361474;28;20064;-88
2022/09/07 12:26:49;;;;;;;8.50;4.60;;;25.80;62.10;;;;;;10361777;28;20477;-87
2022/09/07 12:31:55;;;;;;;6.57;3.83;;;25.80;61.30;;;;;;10356837;28;20413;-87
2022/09/07 12:37:02;;;;;;;7.80;3.83;;;25.50;60.80;;;;;;10360080;28;20484;-87
2022/09/07 12:42:09;;;;;;;11.70;4.53;;;25.60;62.70;;;;;;10352327;28;20556;-87
2022/09/07 12:47:09;;;;;;;9.77;4.13;;;25.80;64.00;;;;;;10363506;28;20029;-94
2022/09/07 12:52:49;;;;;;;8.35;4.10;;;25.50;61.50;;;;;;10361809;28;20041;-88
2022/09/07 12:58:15;;;;;;;6.15;3.30;;;25.60;62.30;;;;;;10357526;28;20048;-85
2022/09/07 13:03:44;;;;;;;5.85;3.47;;;25.70;63.40;;;;;;10361742;28;20080;-88
2022/09/07 13:09:09;;;;;;;6.72;4.22;;;25.70;63.50;;;;;;10356242;28;20052;-87
2022/09/07 13:14:13;;;;;;;5.40;3.33;;;25.70;61.20;;;;;;10368741;28;20030;-87
2022/09/07 13:19:33;;;;;;;5.18;3.63;;;25.60;63.40;;;;;;10368355;28;20585;-87
2022/09/07 13:24:52;;;;;;;6.80;4.00;;;25.70;62.60;;;;;;10369089;28;20385;-86
2022/09/07 13:30:20;;;;;;;6.88;3.70;;;25.80;63.50;;;;;;10367552;28;20064;-86
2022/09/07 13:35:23;;;;;;;5.25;3.40;;;26.00;64.90;;;;;;10368415;28;20477;-86
2022/09/07 13:40:30;;;;;;;6.32;3.53;;;26.00;62.50;;;;;;10368637;28;20037;-86
2022/09/07 13:45:44;;;;;;;9.77;3.90;;;25.60;61.60;;;;;;10369739;28;20018;-87
2022/09/07 13:50:57;;;;;;;8.15;4.13;;;25.40;61.30;;;;;;10363300;28;20253;-87
2022/09/07 13:56:09;;;;;;;6.85;3.63;;;25.20;63.20;;;;;;10368381;28;20033;-87
2022/09/07 14:01:20;;;;;;;7.53;4.07;;;25.20;62.30;;;;;;10357188;28;20042;-88
2022/09/07 14:06:20;;;;;;;6.57;3.88;;;24.90;62.70;;;;;;10365553;28;20091;-90
2022/09/07 14:11:45;;;;;;;5.82;4.00;;;25.00;64.90;;;;;;10366192;28;20401;-88
2022/09/07 14:16:59;;;;;;;9.85;4.15;;;25.10;63.60;;;;;;10363509;28;20046;-89
2022/09/07 14:22:03;;;;;;;9.17;4.00;;;25.00;62.00;;;;;;10365261;28;20022;-89
2022/09/07 14:27:06;;;;;;;9.10;3.60;;;24.70;63.80;;;;;;10363158;28;20054;-87
2022/09/07 14:32:12;;;;;;;5.57;3.70;;;24.70;65.20;;;;;;10366477;28;20026;-85
2022/09/07 14:37:15;;;;;;;8.52;4.13;;;24.70;65.10;;;;;;10355558;28;20501;-85
2022/09/07 14:42:20;;;;;;;5.25;4.03;;;24.50;65.00;;;;;;10366701;28;20034;-84
2022/09/07 14:47:29;;;;;;;7.60;3.65;;;24.20;65.00;;;;;;10366645;28;20061;-85
2022/09/07 14:52:38;;;;;;;7.38;3.55;;;24.10;66.00;;;;;;10367207;28;20073;-84
2022/09/07 14:57:39;;;;;;;6.90;4.00;;;24.00;66.60;;;;;;10365463;28;20498;-83
2022/09/07 15:02:39;;;;;;;4.93;3.85;;;23.90;66.60;;;;;;10366191;28;20110;-83
2022/09/07 15:07:45;;;;;;;9.68;4.20;;;23.80;65.70;;;;;;10359026;28;20040;-82
2022/09/07 15:12:51;;;;;;;9.82;4.40;;;23.70;67.30;;;;;;10359338;28;20022;-83
2022/09/07 15:17:58;;;;;;;9.40;4.68;;;23.60;67.10;;;;;;10361024;28;20041;-84
2022/09/07 15:22:59;;;;;;;9.15;5.13;;;23.50;67.10;;;;;;10360786;28;20040;-83
2022/09/07 15:28:00;;;;;;;9.07;4.07;;;23.50;68.90;;;;;;10356750;28;20049;-85
2022/09/07 15:33:01;;;;;;;7.13;4.20;;;23.40;68.20;;;;;;10362007;28;20044;-85
2022/09/07 15:38:01;;;;;;;10.82;5.40;;;23.30;68.60;;;;;;10362343;28;20048;-83
2022/09/07 15:43:02;;;;;;;10.43;5.35;;;23.20;69.20;;;;;;10363253;28;20026;-84
2022/09/07 15:48:02;;;;;;;11.00;5.35;;;23.10;69.10;;;;;;10360760;28;20437;-84
2022/09/07 15:53:03;;;;;;;9.25;5.35;;;23.00;69.10;;;;;;10362104;28;20036;-84
2022/09/07 15:58:04;;;;;;;8.18;4.97;;;22.90;70.50;;;;;;10361360;28;20486;-85
2022/09/07 16:03:05;;;;;;;9.82;5.15;;;22.80;71.80;;;;;;10355260;28;20037;-84
2022/09/07 16:08:05;;;;;;;11.27;5.55;;;22.70;71.10;;;;;;10363634;28;20033;-84
2022/09/07 16:13:59;;;;;;;10.45;5.40;;;22.50;72.40;;;;;;10358669;28;20037;-86
2022/09/07 16:18:59;;;;;;;10.75;5.45;;;22.30;73.80;;;;;;10357457;28;20044;-83
2022/09/07 16:24:00;;;;;;;10.93;6.18;;;22.00;76.10;;;;;;10363251;28;20383;-84
2022/09/07 16:29:01;;;;;;;30.25;11.10;;;21.70;76.90;;;;;;10359737;28;20160;-84
2022/09/07 16:34:02;;;;;;;11.85;6.57;;;21.50;77.30;;;;;;10353411;28;20030;-84
2022/09/07 16:39:02;;;;;;;21.90;8.18;;;21.30;79.20;;;;;;10357423;28;20049;-85
2022/09/07 16:44:03;;;;;;;9.90;5.55;;;20.90;80.90;;;;;;10366872;28;20036;-85
2022/09/07 16:49:05;;;;;;;9.60;5.38;;;20.50;81.80;;;;;;10367612;28;20104;-85
2022/09/07 16:54:06;;;;;;;6.78;4.72;;;20.20;82.50;;;;;;10367641;28;20120;-84
2022/09/07 16:59:10;;;;;;;8.43;5.85;;;19.90;83.50;;;;;;10366614;28;20057;-84
2022/09/07 17:04:11;;;;;;;9.25;5.97;;;19.60;84.30;;;;;;10367291;28;20014;-85
2022/09/07 17:09:13;;;;;;;11.07;6.60;;;19.30;85.30;;;;;;10355607;28;20445;-84
2022/09/07 17:14:14;;;;;;;16.80;11.40;;;18.90;86.20;;;;;;10369493;28;20410;-84
2022/09/07 17:19:15;;;;;;;18.35;10.15;;;18.80;87.10;;;;;;10361306;28;20073;-84
2022/09/07 17:24:15;;;;;;;15.80;9.25;;;18.60;88.10;;;;;;10367276;28;20065;-83
2022/09/07 17:29:16;;;;;;;11.32;7.53;;;18.40;88.60;;;;;;10361887;28;20061;-84
2022/09/07 17:34:17;;;;;;;11.60;6.75;;;18.20;89.50;;;;;;10366527;28;20030;-86
2022/09/07 17:39:17;;;;;;;15.13;6.68;;;18.00;90.00;;;;;;10367022;28;20038;-85
2022/09/07 17:44:18;;;;;;;8.60;5.18;;;17.80;90.60;;;;;;10367821;28;20163;-85
2022/09/07 17:49:18;;;;;;;136.10;69.80;;;17.70;90.60;;;;;;10368013;28;20466;-85
2022/09/07 17:54:19;;;;;;;97.75;42.67;;;17.70;91.00;;;;;;10361706;28;20135;-85
2022/09/07 17:59:19;;;;;;;84.70;47.42;;;17.60;91.20;;;;;;10367950;28;20064;-84
2022/09/07 18:04:20;;;;;;;23.10;12.43;;;17.50;91.30;;;;;;10361746;28;20049;-82
2022/09/07 18:09:21;;;;;;;15.93;9.48;;;17.50;91.70;;;;;;10365680;28;20036;-84
2022/09/07 18:14:22;;;;;;;18.63;8.77;;;17.30;92.30;;;;;;10363163;28;20469;-84
2022/09/07 18:19:23;;;;;;;9.48;6.70;;;17.20;92.80;;;;;;10357481;28;20041;-84
2022/09/07 18:24:24;;;;;;;8.27;5.40;;;17.10;93.80;;;;;;10366621;28;20121;-85
2022/09/07 18:29:25;;;;;;;13.43;7.07;;;17.00;94.30;;;;;;10364754;28;20050;-84
2022/09/07 18:34:27;;;;;;;15.02;9.70;;;16.90;95.10;;;;;;10363594;28;20034;-84
2022/09/07 18:39:28;;;;;;;21.33;11.80;;;16.90;96.10;;;;;;10363971;28;20128;-84
2022/09/07 18:44:30;;;;;;;22.23;12.63;;;16.80;96.80;;;;;;10360833;28;20032;-86
2022/09/07 18:49:30;;;;;;;26.30;12.80;;;16.60;98.20;;;;;;10363386;28;20030;-84
2022/09/07 18:54:31;;;;;;;27.35;12.45;;;16.40;99.20;;;;;;10365050;28;20745;-83
2022/09/07 18:59:32;;;;;;;26.08;13.35;;;16.30;99.90;;;;;;10363137;28;20100;-86
2022/09/07 19:04:32;;;;;;;18.25;9.85;;;16.10;99.90;;;;;;10363559;28;20033;-84
2022/09/07 19:09:33;;;;;;;14.85;8.65;;;16.10;99.90;;;;;;10361198;28;20039;-86
2022/09/07 19:14:34;;;;;;;11.60;7.25;;;16.10;99.90;;;;;;10364319;28;20068;-83
2022/09/07 19:19:35;;;;;;;12.98;7.90;;;16.10;99.90;;;;;;10355846;28;20494;-85
2022/09/07 19:24:36;;;;;;;16.40;8.93;;;16.10;99.90;;;;;;10363699;28;20026;-85
2022/09/07 19:29:36;;;;;;;19.65;10.20;;;16.10;99.90;;;;;;10362878;28;20030;-83
2022/09/07 19:34:42;;;;;;;19.10;10.38;;;16.10;99.90;;;;;;10359975;28;20033;-86
2022/09/07 19:39:43;;;;;;;;;;;16.00;99.90;;;;;;10360809;28;20057;-86
2022/09/07 19:44:43;;;;;;;21.45;11.32;;;16.00;99.90;;;;;;10360022;28;20414;-85
2022/09/07 19:49:44;;;;;;;21.00;11.98;;;15.90;99.90;;;;;;10361070;28;20485;-85
2022/09/07 19:54:44;;;;;;;17.52;10.00;;;15.80;99.90;;;;;;10363255;28;20037;-84
2022/09/07 19:59:46;;;;;;;22.38;11.43;;;15.70;99.90;;;;;;10353640;28;20052;-83
2022/09/07 20:04:46;;;;;;;21.65;12.18;;;15.70;99.90;;;;;;10363782;28;20453;-83
2022/09/07 20:09:49;;;;;;;20.20;11.98;;;15.60;99.90;;;;;;10362053;28;20038;-84
2022/09/07 20:14:53;;;;;;;23.98;12.40;;;15.50;99.90;;;;;;10362608;28;20124;-85
2022/09/07 20:19:53;;;;;;;24.75;12.98;;;15.50;99.90;;;;;;10362492;28;20041;-82
2022/09/07 20:24:54;;;;;;;22.05;12.18;;;15.40;99.90;;;;;;10363165;28;20709;-82
2022/09/07 20:29:56;;;;;;;25.08;13.48;;;15.30;99.90;;;;;;10360052;28;20045;-82
2022/09/07 20:34:56;;;;;;;24.67;13.52;;;15.30;99.90;;;;;;10356831;28;20041;-86
2022/09/07 20:39:57;;;;;;;25.25;13.82;;;15.20;99.90;;;;;;10352963;28;20597;-81
2022/09/07 20:44:57;;;;;;;27.70;14.18;;;15.00;99.90;;;;;;10362210;28;20032;-85
2022/09/07 20:49:58;;;;;;;24.15;14.15;;;15.00;99.90;;;;;;10359612;28;20553;-82
2022/09/07 20:54:58;;;;;;;28.20;15.57;;;14.90;99.90;;;;;;10361831;28;20030;-82
2022/09/07 20:59:59;;;;;;;27.42;14.65;;;14.80;99.90;;;;;;10353973;28;20065;-84
2022/09/07 21:04:59;;;;;;;25.67;14.43;;;14.70;99.90;;;;;;10362099;28;20538;-83
2022/09/07 21:10:00;;;;;;;25.67;14.27;;;14.80;99.90;;;;;;10360930;28;20044;-83
2022/09/07 21:15:00;;;;;;;23.08;14.55;;;14.80;99.90;;;;;;10355072;28;20469;-83
2022/09/07 21:20:08;;;;;;;23.67;13.63;;;14.70;99.90;;;;;;10359168;28;20143;-82
2022/09/07 21:25:09;;;;;;;26.30;14.07;;;14.60;99.90;;;;;;10359395;28;20046;-86
2022/09/07 21:30:10;;;;;;;25.27;13.88;;;14.50;99.90;;;;;;10363187;28;20057;-84
2022/09/07 21:35:14;;;;;;;28.42;14.52;;;14.50;99.90;;;;;;10369445;28;20034;-84
2022/09/07 21:40:14;;;;;;;30.17;13.43;;;14.50;99.90;;;;;;10363730;28;20041;-83
2022/09/07 21:45:15;;;;;;;25.42;12.75;;;14.50;99.90;;;;;;10353990;28;20042;-84
2022/09/07 21:50:16;;;;;;;24.17;12.90;;;14.50;99.90;;;;;;10367330;28;20026;-83
2022/09/07 21:55:17;;;;;;;26.33;14.07;;;14.40;99.90;;;;;;10368858;28;20060;-83
2022/09/07 22:01:21;;;;;;;22.73;11.68;;;14.40;99.90;;;;;;10364628;28;20493;-83
2022/09/07 22:06:30;;;;;;;22.55;10.95;;;14.30;99.90;;;;;;10353852;28;20129;-86
2022/09/07 22:11:31;;;;;;;20.73;11.82;;;14.20;99.90;;;;;;10357124;28;20490;-83
2022/09/07 22:16:33;;;;;;;21.50;11.52;;;14.20;99.90;;;;;;10362532;28;20038;-83
2022/09/07 22:21:34;;;;;;;24.83;12.18;;;14.20;99.90;;;;;;10364920;28;20046;-83
2022/09/07 22:26:38;;;;;;;21.20;11.07;;;14.10;99.90;;;;;;10365189;28;20049;-83
2022/09/07 22:31:40;;;;;;;20.00;11.10;;;14.10;99.90;;;;;;10363540;28;20480;-86
2022/09/07 22:36:42;;;;;;;27.88;13.18;;;14.00;99.90;;;;;;10366188;28;20081;-84
2022/09/07 22:41:44;;;;;;;20.80;11.93;;;14.00;99.90;;;;;;10364784;28;20030;-84
2022/09/07 22:46:46;;;;;;;23.42;11.35;;;13.90;99.90;;;;;;10362394;28;20507;-83
2022/09/07 22:51:46;;;;;;;26.90;12.80;;;13.90;99.90;;;;;;10363935;28;20053;-85
2022/09/07 22:56:48;;;;;;;26.85;12.77;;;13.90;99.90;;;;;;10358750;28;20132;-84
2022/09/07 23:01:48;;;;;;;24.15;11.85;;;14.00;99.90;;;;;;10362042;28;20030;-85
2022/09/07 23:06:49;;;;;;;21.15;12.07;;;14.10;99.90;;;;;;10365978;28;20029;-84
2022/09/07 23:11:49;;;;;;;22.98;13.15;;;14.10;99.90;;;;;;10364022;28;20492;-83
2022/09/07 23:16:50;;;;;;;21.02;10.23;;;14.10;99.90;;;;;;10358070;28;20048;-83
2022/09/07 23:21:50;;;;;;;20.33;10.60;;;14.10;99.90;;;;;;10364342;28;20124;-85
2022/09/07 23:26:51;;;;;;;29.13;11.75;;;14.10;99.90;;;;;;10365140;28;20141;-83
2022/09/07 23:31:52;;;;;;;22.55;11.15;;;14.10;99.90;;;;;;10361833;28;20034;-84
2022/09/07 23:36:53;;;;;;;19.70;10.32;;;14.10;99.90;;;;;;10364765;28;20045;-84
2022/09/07 23:41:53;;;;;;;24.17;10.82;;;14.00;99.90;;;;;;10363667;28;20065;-87
2022/09/07 23:46:54;;;;;;;20.55;9.27;;;14.00;99.90;;;;;;10357567;28;20033;-86
2022/09/07 23:51:54;;;;;;;15.75;8.60;;;13.90;99.90;;;;;;10361477;28;20448;-83
2022/09/07 23:56:55;;;;;;;15.15;8.55;;;13.80;99.90;;;;;;10360065;28;20030;-85
